Pagrindinis puslapis
METAR-TAF:

METAR-TAF

Oro uostai :

Ferara, Italija

platuma: 44-50N, ilguma: 011-37E, Aukštis: 10 m

Dabartinis oras

Ataskaita buvo paskelbta 10 valandos ir 13 minutes, ne 17:55 UTC
Vėjas 2 kt iš Vakarų
Temperatūra 8°C
Drėgmė 81%
Slėgis 1024 hPa
Matomumas: 8000 m
Su prošvaistėmis ne aukštis 6000 ft

METAR: LIPF 171755Z 26002KT 8000 BKN060 08/05 Q1024 RMK BKN VIS MIN 8000

Laikas: 05:08 (04:08 UTC)


TAF: trūkstamas

Orai ataskaitas ir orų prognozės (METAR, TAF).

turimą stotys yra geltonos ir raudonos taškus žemėlapyje.

Perkelti pele per norėdami pamatyti stoties vardą.

Tada spustelėkite, norėdami matyti oro stebėjimo ir prognozės.

Norėdami pakeisti žemėlapį: spustelėkite ant žalios mygtukų su juodo kryžiaus žemyn,; žalią mygtuką su brūkšneliu, jei norite nutolinti; arba žalių rodyklių gretimoms žemėlapius.


METAR-TAF: